Aviation Digital Data Service (ADDS)

Output produced by METARs form (1139 UTC 22 September 2017)
found at http://aviationweather.gov/adds/metars/
 
KMHT 221121Z 2212/2312 36010G19KT P6SM SCT045 
     FM230100 01009KT P6SM BKN030